Saint Joe, Illinois
Current Conditions -  °F | °C
As of 8:05 PM on Monday 22 Dec 2014 (Local Time) from KCPS Reporting Station
Light Rain Light Rain  
Wind Chill: 50°   Ceiling: 6000
Heat Index: 50°   Visibility: 7mi
Dew Point: 49°   Wind: 6mph
Humidity: 96%   Direction: 160°SSE
Pressure: 29.53"   Gusts: NA
Location:  38.3034°N, 90.1358°W
Report Text: KCPS 230205Z 16005KT 7SM -RA FEW009 BKN060 OVC070 10/09 A2953 RMK AO2 P0001 T01000094
Loading
Personal Weather Stations






























Interactive Weather Map New forecast layout! Learn more

10-Day Weather Forecast

Advertisements
Track Severe Weather on mobile